Etusivu
METAR-TAF:

METAR-TAF

Lentoasemat :

Harry P. Williams Memorial Airport

Patterson, Louisiana, Yhdysvallat

Leveyspiiri: 29-43N, Pituuspiiri: 091-20W, korkeus merenpinnasta: 3 m

Tämänhetkinen sää

Tämä raportti tehtiin 4 minuuttia sitten, kello 12.56 UTC
Tuuli 4 kn idästä/kaakosta
Lämpötila 20°C
Kosteus 100%
Ilmanpaine 1017 hPa
Näkyvyys: 2.0 km
Hajonneita pilviä 200 ft:n korkeudessa
Pilvistä 1700 ft:n korkeudessa
utua

METAR: KPTN 181256Z AUTO 11004KT 1 1/4SM BR BKN002 OVC017 20/20 A3004 RMK AO2 SLP173 T02000200

Aika: 07:00 (13:00 UTC)


TAF: puuttuu

Säähavainnot ja -ennusteet yli 4000 lentoasemalta (METAR- ja TAF-raportit).

Käytössä olevat sääasemat on merkitty karttaan keltaisilla ja punaisilla pisteillä.

Aseta hiiri pisteen päälle nähdäksesi sääaseman nimen.

Klikkaa sitten nähdäksesi säähavainnot ja -ennusteet.

Kartan vaihtaminen: klikkaa mustalla rastilla varustettuja vihreitä pisteitä, niin voit zoomata sisään; viivalla varustettua vihreää pistettä, niin voit zoomata ulos tai vihreitä nuolia, niin pääset viereisille kartoille.


METAR-TAF: